Time,TemperatureF,DewpointF,PressureIn,WindDirection,WindDirectionDegrees,WindSpeedMPH,WindSpeedGustMPH,Humidity,HourlyPrecipIn,Conditions,Clouds,dailyrainin,SoftwareType,DateUTC
2013-02-18 00:00:00,16.9,10.6,30.25,SE,135,8.1,8.1,76,0.00,,,0.00,WUHU216HW,2013-02-18 05:00:00,
2013-02-18 00:05:00,16.9,10.6,30.25,SE,135,8.3,8.5,76,0.00,,,0.00,WUHU216HW,2013-02-18 05:05:00,
2013-02-18 00:10:00,16.9,10.6,30.25,SE,135,7.6,8.5,76,0.00,,,0.00,WUHU216HW,2013-02-18 05:10:00,
2013-02-18 00:15:00,17.1,10.8,30.25,SE,135,9.2,9.2,76,0.00,,,0.00,WUHU216HW,2013-02-18 05:15:00,
2013-02-18 00:20:00,17.3,10.9,30.25,SE,135,8.1,9.2,76,0.00,,,0.00,WUHU216HW,2013-02-18 05:20:00,
2013-02-18 00:25:00,17.6,11.3,30.25,SE,135,8.7,9.6,76,0.00,,,0.00,WUHU216HW,2013-02-18 05:25:00,
2013-02-18 00:30:00,17.6,11.3,30.25,ESE,113,9.6,9.6,76,0.00,,,0.00,WUHU216HW,2013-02-18 05:30:00,
2013-02-18 00:35:00,18.0,11.6,30.24,ESE,113,8.1,9.6,76,0.00,,,0.00,WUHU216HW,2013-02-18 05:35:00,
2013-02-18 00:40:00,18.4,12.0,30.24,SE,135,8.7,9.8,76,0.00,,,0.00,WUHU216HW,2013-02-18 05:40:00,
2013-02-18 00:45:00,18.4,12.0,30.24,SE,135,9.2,10.1,76,0.00,,,0.00,WUHU216HW,2013-02-18 05:45:00,
2013-02-18 00:50:00,18.5,12.2,30.24,ESE,113,8.5,10.1,76,0.00,,,0.00,WUHU216HW,2013-02-18 05:50:00,
2013-02-18 00:55:00,18.5,12.2,30.24,SE,135,9.8,9.8,76,0.00,,,0.00,WUHU216HW,2013-02-18 05:55:00,
2013-02-18 01:00:00,18.7,12.3,30.24,SE,135,9.2,9.8,76,0.00,,,0.00,WUHU216HW,2013-02-18 06:00:00,
2013-02-18 01:05:00,18.9,12.5,30.24,SE,135,9.6,9.8,76,0.00,,,0.00,WUHU216HW,2013-02-18 06:05:00,
2013-02-18 01:10:00,19.1,12.7,30.24,SE,135,9.2,9.8,76,0.00,,,0.00,WUHU216HW,2013-02-18 06:10:00,
2013-02-18 01:15:00,19.3,12.5,30.24,ESE,113,10.3,10.3,75,0.00,,,0.00,WUHU216HW,2013-02-18 06:15:00,
2013-02-18 01:20:00,19.4,12.7,30.24,SE,135,8.9,10.3,75,0.00,,,0.00,WUHU216HW,2013-02-18 06:20:00,
2013-02-18 01:26:00,19.4,12.7,30.24,SE,135,7.4,9.6,75,0.00,,,0.00,WUHU216HW,2013-02-18 06:26:00,
2013-02-18 01:31:00,19.4,12.7,30.23,SE,135,10.5,10.5,75,0.00,,,0.00,WUHU216HW,2013-02-18 06:31:00,
2013-02-18 01:36:00,19.4,12.7,30.23,SE,135,8.5,10.5,75,0.00,,,0.00,WUHU216HW,2013-02-18 06:36:00,
2013-02-18 01:41:00,19.4,12.7,30.23,SE,135,10.5,11.0,75,0.00,,,0.00,WUHU216HW,2013-02-18 06:41:00,
2013-02-18 01:46:00,19.6,12.9,30.23,SE,135,10.5,11.9,75,0.00,,,0.00,WUHU216HW,2013-02-18 06:46:00,
2013-02-18 01:51:00,19.6,12.9,30.23,SE,135,9.2,11.9,75,0.00,,,0.00,WUHU216HW,2013-02-18 06:51:00,
2013-02-18 01:56:00,19.6,12.6,30.22,SE,135,8.5,10.1,74,0.00,,,0.00,WUHU216HW,2013-02-18 06:56:00,
2013-02-18 02:01:00,19.6,12.6,30.22,SE,135,8.3,9.6,74,0.00,,,0.00,WUHU216HW,2013-02-18 07:01:00,
2013-02-18 02:06:00,19.6,12.6,30.22,SE,135,8.5,11.4,74,0.00,,,0.00,WUHU216HW,2013-02-18 07:06:00,
2013-02-18 02:11:00,19.6,12.6,30.22,SE,135,9.4,11.4,74,0.00,,,0.00,WUHU216HW,2013-02-18 07:11:00,
2013-02-18 02:16:00,19.6,12.6,30.22,SE,135,9.2,10.1,74,0.00,,,0.00,WUHU216HW,2013-02-18 07:16:00,
2013-02-18 02:21:00,19.6,12.6,30.22,SE,135,8.5,10.1,74,0.00,,,0.00,WUHU216HW,2013-02-18 07:21:00,
2013-02-18 02:26:00,19.8,12.8,30.21,SE,135,8.5,9.8,74,0.00,,,0.00,WUHU216HW,2013-02-18 07:26:00,
2013-02-18 02:31:00,19.8,12.8,30.21,SE,135,7.6,9.8,74,0.00,,,0.00,WUHU216HW,2013-02-18 07:31:00,
2013-02-18 02:36:00,20.0,13.0,30.21,ESE,113,6.9,9.4,74,0.00,,,0.00,WUHU216HW,2013-02-18 07:36:00,
2013-02-18 02:41:00,20.2,13.2,30.21,ESE,113,8.3,8.9,74,0.00,,,0.00,WUHU216HW,2013-02-18 07:41:00,
2013-02-18 02:46:00,20.2,13.2,30.20,SE,135,8.1,8.9,74,0.00,,,0.00,WUHU216HW,2013-02-18 07:46:00,
2013-02-18 02:51:00,20.3,13.3,30.20,SE,135,8.7,8.7,74,0.00,,,0.00,WUHU216HW,2013-02-18 07:51:00,
2013-02-18 02:56:00,20.5,13.5,30.20,ESE,113,8.1,10.5,74,0.00,,,0.00,WUHU216HW,2013-02-18 07:56:00,
2013-02-18 03:01:00,20.7,13.7,30.20,SE,135,8.1,10.5,74,0.00,,,0.00,WUHU216HW,2013-02-18 08:01:00,
2013-02-18 03:06:00,20.9,13.9,30.20,SE,135,8.3,9.6,74,0.00,,,0.00,WUHU216HW,2013-02-18 08:06:00,
2013-02-18 03:11:00,21.1,14.3,30.19,ESE,113,9.4,9.6,75,0.00,,,0.00,WUHU216HW,2013-02-18 08:11:00,
2013-02-18 03:16:00,21.2,14.5,30.19,SE,135,8.7,11.0,75,0.00,,,0.00,WUHU216HW,2013-02-18 08:16:00,
2013-02-18 03:21:00,21.2,14.2,30.18,SE,135,10.5,11.0,74,0.00,,,0.00,WUHU216HW,2013-02-18 08:21:00,
2013-02-18 03:26:00,21.4,14.4,30.18,SE,135,8.9,12.5,74,0.00,,,0.00,WUHU216HW,2013-02-18 08:26:00,
2013-02-18 03:31:00,21.6,14.6,30.18,ESE,113,11.9,12.5,74,0.00,,,0.00,WUHU216HW,2013-02-18 08:31:00,
2013-02-18 03:36:00,21.8,14.8,30.17,ESE,113,10.5,13.4,74,0.00,,,0.00,WUHU216HW,2013-02-18 08:36:00,
2013-02-18 03:41:00,22.0,14.6,30.17,SE,135,10.3,13.4,73,0.00,,,0.00,WUHU216HW,2013-02-18 08:41:00,
2013-02-18 03:46:00,22.1,14.8,30.17,SE,135,11.4,11.9,73,0.00,,,0.00,WUHU216HW,2013-02-18 08:46:00,
2013-02-18 03:51:00,22.3,14.7,30.16,ESE,113,12.1,12.5,72,0.00,,,0.00,WUHU216HW,2013-02-18 08:51:00,
2013-02-18 03:56:00,22.5,14.9,30.16,SE,135,10.5,12.5,72,0.00,,,0.00,WUHU216HW,2013-02-18 08:56:00,
2013-02-18 04:01:00,22.7,15.0,30.16,SE,135,10.1,12.1,72,0.00,,,0.00,WUHU216HW,2013-02-18 09:01:00,
2013-02-18 04:06:00,22.7,15.0,30.16,SE,135,13.0,14.1,72,0.00,,,0.00,WUHU216HW,2013-02-18 09:06:00,
2013-02-18 04:11:00,22.7,15.0,30.16,SE,135,12.8,14.1,72,0.00,,,0.00,WUHU216HW,2013-02-18 09:11:00,
2013-02-18 04:16:00,23.0,15.4,30.15,SE,135,11.6,13.0,72,0.00,,,0.00,WUHU216HW,2013-02-18 09:16:00,
2013-02-18 04:21:00,23.0,15.0,30.15,SE,135,12.3,13.0,71,0.00,,,0.00,WUHU216HW,2013-02-18 09:21:00,
2013-02-18 04:26:00,23.2,15.2,30.14,SE,135,10.5,12.3,71,0.00,,,0.00,WUHU216HW,2013-02-18 09:26:00,
2013-02-18 04:31:00,23.4,15.4,30.14,SE,135,12.1,13.4,71,0.00,,,0.00,WUHU216HW,2013-02-18 09:31:00,
2013-02-18 04:36:00,23.4,15.1,30.14,SE,135,10.5,13.4,70,0.00,,,0.00,WUHU216HW,2013-02-18 09:36:00,
2013-02-18 04:41:00,23.4,15.1,30.14,ESE,113,9.6,11.9,70,0.00,,,0.00,WUHU216HW,2013-02-18 09:41:00,
2013-02-18 04:46:00,23.4,15.1,30.14,ESE,113,11.0,13.6,70,0.00,,,0.00,WUHU216HW,2013-02-18 09:46:00,
2013-02-18 04:51:00,23.4,14.8,30.13,ESE,113,11.2,13.6,69,0.00,,,0.00,WUHU216HW,2013-02-18 09:51:00,
2013-02-18 04:56:00,23.4,14.8,30.13,SE,135,13.2,13.2,69,0.00,,,0.00,WUHU216HW,2013-02-18 09:56:00,
2013-02-18 05:01:00,23.4,14.8,30.13,SE,135,11.2,15.0,69,0.00,,,0.00,WUHU216HW,2013-02-18 10:01:00,
2013-02-18 05:06:00,23.4,14.8,30.12,ESE,113,11.6,15.0,69,0.00,,,0.00,WUHU216HW,2013-02-18 10:06:00,
2013-02-18 05:11:00,23.2,14.6,30.12,ESE,113,12.5,14.3,69,0.00,,,0.00,WUHU216HW,2013-02-18 10:11:00,
2013-02-18 05:16:00,23.4,14.8,30.11,ESE,113,14.1,14.1,69,0.00,,,0.00,WUHU216HW,2013-02-18 10:16:00,
2013-02-18 05:21:00,23.4,14.8,30.11,SE,135,12.8,14.8,69,0.00,,,0.00,WUHU216HW,2013-02-18 10:21:00,
2013-02-18 05:26:00,23.4,14.8,30.11,ESE,113,14.8,16.3,69,0.00,,,0.00,WUHU216HW,2013-02-18 10:26:00,
2013-02-18 05:31:00,23.4,14.8,30.10,SE,135,14.5,16.3,69,0.00,,,0.00,WUHU216HW,2013-02-18 10:31:00,
2013-02-18 05:36:00,23.4,14.8,30.11,SE,135,13.2,14.5,69,0.00,,,0.00,WUHU216HW,2013-02-18 10:36:00,
2013-02-18 05:41:00,23.4,14.8,30.10,ESE,113,12.1,15.7,69,0.00,,,0.00,WUHU216HW,2013-02-18 10:41:00,
2013-02-18 05:46:00,23.4,14.8,30.09,ESE,113,12.1,16.6,69,0.00,,,0.00,WUHU216HW,2013-02-18 10:46:00,
2013-02-18 05:51:00,23.6,14.9,30.09,SE,135,12.5,14.8,69,0.00,,,0.00,WUHU216HW,2013-02-18 10:51:00,
2013-02-18 05:56:00,23.4,14.8,30.08,East,90,12.1,15.0,69,0.00,,,0.00,WUHU216HW,2013-02-18 10:56:00,
2013-02-18 06:01:00,23.4,14.8,30.08,ESE,113,7.4,15.0,69,0.00,,,0.00,WUHU216HW,2013-02-18 11:01:00,
2013-02-18 06:06:00,23.4,14.8,30.08,ESE,113,7.4,12.8,69,0.00,,,0.00,WUHU216HW,2013-02-18 11:06:00,
2013-02-18 06:36:00,23.4,14.8,30.06,ESE,113,12.1,14.3,69,0.00,,,0.00,WUHU216HW,2013-02-18 11:36:00,
2013-02-18 06:41:00,23.4,14.8,30.06,SE,135,15.7,18.3,69,0.00,,,0.00,WUHU216HW,2013-02-18 11:41:00,
2013-02-18 06:46:00,23.6,14.9,30.06,SE,135,14.3,18.3,69,0.00,,,0.00,WUHU216HW,2013-02-18 11:46:00,
2013-02-18 06:51:00,23.8,15.0,30.06,ESE,113,13.4,16.3,69,0.00,,,0.00,WUHU216HW,2013-02-18 11:51:00,
2013-02-18 06:56:00,23.8,15.0,30.06,SE,135,12.1,13.9,69,0.00,,,0.00,WUHU216HW,2013-02-18 11:56:00,
2013-02-18 07:01:00,23.9,15.2,30.05,SE,135,12.8,15.0,69,0.00,,,0.00,WUHU216HW,2013-02-18 12:01:00,
2013-02-18 07:06:00,23.9,15.2,30.05,SE,135,11.6,15.7,69,0.00,,,0.00,WUHU216HW,2013-02-18 12:06:00,
2013-02-18 07:11:00,24.1,15.4,30.05,SE,135,13.0,15.7,69,0.00,,,0.00,WUHU216HW,2013-02-18 12:11:00,
2013-02-18 07:16:00,24.1,15.4,30.04,ESE,113,15.0,15.0,69,0.00,,,0.00,WUHU216HW,2013-02-18 12:16:00,
2013-02-18 07:21:00,24.1,15.4,30.04,SE,135,11.4,15.0,69,0.00,,,0.00,WUHU216HW,2013-02-18 12:21:00,
2013-02-18 07:26:00,24.1,15.4,30.04,SE,135,15.0,15.0,69,0.00,,,0.00,WUHU216HW,2013-02-18 12:26:00,
2013-02-18 07:31:00,24.3,15.6,30.03,SE,135,15.4,15.9,69,0.00,,,0.00,WUHU216HW,2013-02-18 12:31:00,
2013-02-18 07:36:00,24.5,15.8,30.03,SE,135,15.4,16.1,69,0.00,,,0.00,WUHU216HW,2013-02-18 12:36:00,
2013-02-18 07:41:00,24.7,15.8,30.03,ESE,113,13.9,16.1,69,0.00,,,0.00,WUHU216HW,2013-02-18 12:41:00,
2013-02-18 07:46:00,24.8,16.0,30.03,SE,135,17.9,17.9,69,0.00,,,0.00,WUHU216HW,2013-02-18 12:46:00,
2013-02-18 07:51:00,24.8,16.4,30.03,SE,135,15.9,17.9,70,0.00,,,0.00,WUHU216HW,2013-02-18 12:51:00,
2013-02-18 07:56:00,25.0,16.6,30.03,SE,135,15.7,15.9,70,0.00,,,0.00,WUHU216HW,2013-02-18 12:56:00,
2013-02-18 08:01:00,25.2,16.7,30.03,SE,135,15.0,16.3,70,0.00,,,0.00,WUHU216HW,2013-02-18 13:01:00,
2013-02-18 08:06:00,25.4,16.9,30.03,SE,135,15.7,16.3,70,0.00,,,0.00,WUHU216HW,2013-02-18 13:06:00,
2013-02-18 08:11:00,25.6,17.1,30.03,SE,135,14.3,16.8,70,0.00,,,0.00,WUHU216HW,2013-02-18 13:11:00,
2013-02-18 08:16:00,25.9,17.1,30.03,SE,135,13.2,16.8,69,0.00,,,0.00,WUHU216HW,2013-02-18 13:16:00,
2013-02-18 08:21:00,26.3,17.5,30.03,SE,135,16.6,16.6,69,0.00,,,0.00,WUHU216HW,2013-02-18 13:21:00,
2013-02-18 08:26:00,26.6,17.8,30.03,SE,135,13.2,16.6,69,0.00,,,0.00,WUHU216HW,2013-02-18 13:26:00,
2013-02-18 08:31:00,27.2,17.6,30.03,ESE,113,12.3,16.8,67,0.00,,,0.00,WUHU216HW,2013-02-18 13:31:00,
2013-02-18 08:36:00,27.7,18.2,30.02,SE,135,15.7,17.0,67,0.00,,,0.00,WUHU216HW,2013-02-18 13:36:00,
2013-02-18 08:41:00,27.9,18.4,30.02,SE,135,11.9,17.0,67,0.00,,,0.00,WUHU216HW,2013-02-18 13:41:00,
2013-02-18 08:46:00,28.3,18.4,30.02,SE,135,16.3,16.3,66,0.00,,,0.00,WUHU216HW,2013-02-18 13:46:00,
2013-02-18 08:51:00,28.4,18.5,30.02,SE,135,15.7,18.6,66,0.00,,,0.00,WUHU216HW,2013-02-18 13:51:00,
2013-02-18 08:56:00,28.6,18.7,30.01,SE,135,16.3,19.2,66,0.00,,,0.00,WUHU216HW,2013-02-18 13:56:00,
2013-02-18 09:01:00,28.8,18.9,30.01,SE,135,17.0,19.9,66,0.00,,,0.00,WUHU216HW,2013-02-18 14:01:00,
2013-02-18 09:06:00,29.2,19.2,30.01,SE,135,16.3,19.9,66,0.00,,,0.00,WUHU216HW,2013-02-18 14:06:00,
2013-02-18 09:11:00,29.3,19.4,30.01,SE,135,14.5,17.9,66,0.00,,,0.00,WUHU216HW,2013-02-18 14:11:00,
2013-02-18 09:16:00,29.5,19.5,30.01,SE,135,12.3,16.6,66,0.00,,,0.00,WUHU216HW,2013-02-18 14:16:00,
2013-02-18 09:21:00,29.9,19.8,30.01,SSE,158,12.1,16.1,66,0.00,,,0.00,WUHU216HW,2013-02-18 14:21:00,
2013-02-18 09:26:00,29.9,19.8,30.01,SE,135,16.3,16.3,66,0.00,,,0.00,WUHU216HW,2013-02-18 14:26:00,
2013-02-18 09:31:00,29.7,19.7,30.00,SE,135,13.6,19.0,66,0.00,,,0.00,WUHU216HW,2013-02-18 14:31:00,
2013-02-18 09:36:00,29.9,19.8,30.00,SE,135,13.4,19.0,66,0.00,,,0.00,WUHU216HW,2013-02-18 14:36:00,
2013-02-18 09:41:00,30.1,20.0,30.00,SE,135,11.2,17.9,66,0.00,,,0.00,WUHU216HW,2013-02-18 14:41:00,
2013-02-18 09:46:00,30.4,20.0,30.00,SE,135,14.8,17.9,65,0.00,,,0.00,WUHU216HW,2013-02-18 14:46:00,
2013-02-18 09:51:00,30.6,20.2,29.99,SE,135,11.2,14.8,65,0.00,,,0.00,WUHU216HW,2013-02-18 14:51:00,
2013-02-18 09:56:00,30.8,20.3,29.99,SE,135,13.6,17.7,65,0.00,,,0.00,WUHU216HW,2013-02-18 14:56:00,
2013-02-18 10:01:00,31.0,20.5,29.99,SE,135,14.1,17.7,65,0.00,,,0.00,WUHU216HW,2013-02-18 15:01:00,
2013-02-18 10:06:00,31.5,20.7,29.98,SE,135,15.4,18.1,64,0.00,,,0.00,WUHU216HW,2013-02-18 15:06:00,
2013-02-18 10:11:00,31.7,20.9,29.98,SE,135,12.1,18.1,64,0.00,,,0.00,WUHU216HW,2013-02-18 15:11:00,
2013-02-18 10:16:00,32.0,21.2,29.98,SE,135,10.5,15.2,64,0.00,,,0.00,WUHU216HW,2013-02-18 15:16:00,
2013-02-18 10:21:00,32.6,21.3,29.98,SE,135,15.2,15.4,63,0.00,,,0.00,WUHU216HW,2013-02-18 15:21:00,
2013-02-18 10:26:00,32.8,21.5,29.98,SE,135,14.8,15.4,63,0.00,,,0.00,WUHU216HW,2013-02-18 15:26:00,
2013-02-18 10:31:00,33.1,21.9,29.98,SE,135,11.2,14.8,63,0.00,,,0.00,WUHU216HW,2013-02-18 15:31:00,
2013-02-18 10:36:00,33.5,22.1,29.98,SE,135,11.0,13.9,63,0.00,,,0.00,WUHU216HW,2013-02-18 15:36:00,
2013-02-18 10:41:00,34.0,22.3,29.98,SSE,158,13.4,13.4,62,0.00,,,0.00,WUHU216HW,2013-02-18 15:41:00,
2013-02-18 10:46:00,34.2,22.5,29.98,SE,135,11.0,15.2,62,0.00,,,0.00,WUHU216HW,2013-02-18 15:46:00,
2013-02-18 10:51:00,34.6,22.9,29.97,SE,135,10.3,15.2,62,0.00,,,0.00,WUHU216HW,2013-02-18 15:51:00,
2013-02-18 10:56:00,34.7,23.0,29.97,SE,135,11.0,13.4,62,0.00,,,0.00,WUHU216HW,2013-02-18 15:56:00,
2013-02-18 11:01:00,34.9,23.2,29.97,SE,135,8.9,12.3,62,0.00,,,0.00,WUHU216HW,2013-02-18 16:01:00,
2013-02-18 11:07:00,35.3,23.6,29.97,SE,135,10.1,12.3,62,0.00,,,0.00,WUHU216HW,2013-02-18 16:07:00,
2013-02-18 11:12:00,35.5,23.8,29.97,ESE,113,11.4,12.3,62,0.00,,,0.00,WUHU216HW,2013-02-18 16:12:00,
2013-02-18 11:17:00,35.8,24.1,29.97,SE,135,11.2,13.0,62,0.00,,,0.00,WUHU216HW,2013-02-18 16:17:00,
2013-02-18 11:22:00,36.2,24.5,29.96,SE,135,12.8,13.9,62,0.00,,,0.00,WUHU216HW,2013-02-18 16:22:00,
2013-02-18 11:27:00,36.5,24.8,29.96,SE,135,11.2,16.3,62,0.00,,,0.00,WUHU216HW,2013-02-18 16:27:00,
2013-02-18 11:32:00,37.1,25.3,29.96,SE,135,13.6,16.3,62,0.00,,,0.00,WUHU216HW,2013-02-18 16:32:00,
2013-02-18 11:37:00,37.3,25.0,29.95,SSE,158,11.0,16.3,61,0.00,,,0.00,WUHU216HW,2013-02-18 16:37:00,
2013-02-18 11:42:00,37.6,25.7,29.95,SE,135,10.7,16.3,62,0.00,,,0.00,WUHU216HW,2013-02-18 16:42:00,
2013-02-18 11:47:00,38.2,26.3,29.95,SE,135,11.0,13.9,62,0.00,,,0.00,WUHU216HW,2013-02-18 16:47:00,
2013-02-18 11:52:00,38.5,26.2,29.95,SE,135,13.4,15.9,61,0.00,,,0.00,WUHU216HW,2013-02-18 16:52:00,
2013-02-18 11:57:00,38.5,26.2,29.95,SE,135,13.0,15.9,61,0.00,,,0.00,WUHU216HW,2013-02-18 16:57:00,
2013-02-18 12:02:00,38.5,26.2,29.94,SE,135,8.7,14.3,61,0.00,,,0.00,WUHU216HW,2013-02-18 17:02:00,
2013-02-18 12:07:00,38.7,26.4,29.94,SSE,158,10.1,12.8,61,0.00,,,0.00,WUHU216HW,2013-02-18 17:07:00,
2013-02-18 12:12:00,38.9,26.1,29.94,SE,135,8.5,13.4,60,0.00,,,0.00,WUHU216HW,2013-02-18 17:12:00,
2013-02-18 12:17:00,39.1,26.6,29.93,SE,135,13.2,13.4,61,0.00,,,0.00,WUHU216HW,2013-02-18 17:17:00,
2013-02-18 12:22:00,39.1,26.6,29.93,SE,135,12.5,13.2,61,0.00,,,0.00,WUHU216HW,2013-02-18 17:22:00,
2013-02-18 12:27:00,39.1,26.6,29.93,SE,135,12.5,12.5,61,0.00,,,0.00,WUHU216HW,2013-02-18 17:27:00,
2013-02-18 12:52:00,41.8,28.4,29.91,SE,135,10.5,12.3,59,0.00,,,0.00,WUHU216HW,2013-02-18 17:52:00,
2013-02-18 12:57:00,42.1,28.4,29.91,SE,135,10.5,13.2,58,0.00,,,0.00,WUHU216HW,2013-02-18 17:57:00,
2013-02-18 13:02:00,42.3,28.5,29.91,SE,135,10.7,13.2,58,0.00,,,0.00,WUHU216HW,2013-02-18 18:02:00,
2013-02-18 13:07:00,42.3,29.0,29.91,SE,135,12.1,13.0,59,0.00,,,0.00,WUHU216HW,2013-02-18 18:07:00,
2013-02-18 13:12:00,42.5,28.7,29.90,SE,135,11.6,14.3,58,0.00,,,0.00,WUHU216HW,2013-02-18 18:12:00,
2013-02-18 13:17:00,42.7,28.9,29.90,SE,135,11.0,15.2,58,0.00,,,0.00,WUHU216HW,2013-02-18 18:17:00,
2013-02-18 13:22:00,42.8,29.0,29.90,SE,135,12.1,15.2,58,0.00,,,0.00,WUHU216HW,2013-02-18 18:22:00,
2013-02-18 13:27:00,42.8,29.4,29.89,SSE,158,12.1,14.1,59,0.01,,,0.02,WUHU216HW,2013-02-18 18:27:00,
2013-02-18 13:32:00,43.0,29.6,29.88,ESE,113,13.2,14.1,59,0.02,,,0.02,WUHU216HW,2013-02-18 18:32:00,
2013-02-18 13:37:00,43.6,30.2,29.87,SE,135,15.0,15.0,59,0.02,,,0.02,WUHU216HW,2013-02-18 18:37:00,
2013-02-18 13:42:00,44.1,29.8,29.87,SE,135,14.5,17.9,57,0.03,,,0.02,WUHU216HW,2013-02-18 18:42:00,
2013-02-18 13:47:00,43.7,29.9,29.86,SE,135,15.7,17.9,58,0.03,,,0.04,WUHU216HW,2013-02-18 18:47:00,
2013-02-18 13:52:00,43.9,30.1,29.86,SE,135,17.2,17.4,58,0.03,,,0.04,WUHU216HW,2013-02-18 18:52:00,
2013-02-18 13:57:00,43.9,30.1,29.86,SE,135,17.2,17.4,58,0.03,,,0.04,WUHU216HW,2013-02-18 18:57:00,
2013-02-18 14:02:00,43.7,30.3,29.85,SE,135,17.9,17.9,59,0.04,,,0.05,WUHU216HW,2013-02-18 19:02:00,
2013-02-18 14:07:00,43.6,30.2,29.84,SE,135,14.8,17.9,59,0.05,,,0.05,WUHU216HW,2013-02-18 19:07:00,
2013-02-18 14:12:00,43.4,30.4,29.84,SE,135,15.0,18.3,60,0.05,,,0.05,WUHU216HW,2013-02-18 19:12:00,
2013-02-18 14:17:00,43.4,30.4,29.84,SE,135,15.9,19.9,60,0.06,,,0.07,WUHU216HW,2013-02-18 19:17:00,
2013-02-18 14:22:00,43.2,30.6,29.84,SE,135,16.1,19.9,61,0.05,,,0.07,WUHU216HW,2013-02-18 19:22:00,
2013-02-18 14:27:00,43.2,30.6,29.83,SE,135,15.2,19.2,61,0.05,,,0.07,WUHU216HW,2013-02-18 19:27:00,
2013-02-18 14:32:00,43.2,31.1,29.83,SE,135,14.3,19.2,62,0.04,,,0.07,WUHU216HW,2013-02-18 19:32:00,
2013-02-18 14:37:00,43.4,31.2,29.83,SE,135,16.6,18.8,62,0.04,,,0.07,WUHU216HW,2013-02-18 19:37:00,
2013-02-18 14:42:00,43.2,31.1,29.82,SE,135,18.6,18.8,62,0.03,,,0.07,WUHU216HW,2013-02-18 19:42:00,
2013-02-18 14:47:00,43.4,31.2,29.82,SE,135,16.3,18.6,62,0.03,,,0.07,WUHU216HW,2013-02-18 19:47:00,
2013-02-18 14:52:00,43.6,31.8,29.82,SE,135,15.7,17.7,63,0.02,,,0.07,WUHU216HW,2013-02-18 19:52:00,
2013-02-18 14:57:00,43.6,31.8,29.82,SE,135,16.3,17.2,63,0.02,,,0.07,WUHU216HW,2013-02-18 19:57:00,
2013-02-18 15:02:00,43.6,31.8,29.82,SSE,158,12.1,17.2,63,0.01,,,0.07,WUHU216HW,2013-02-18 20:02:00,
2013-02-18 15:08:00,43.7,32.0,29.82,SE,135,13.2,14.1,63,0.01,,,0.07,WUHU216HW,2013-02-18 20:08:00,
2013-02-18 15:13:00,43.9,32.1,29.82,SE,135,12.5,15.7,63,0.00,,,0.07,WUHU216HW,2013-02-18 20:13:00,
2013-02-18 15:18:00,43.9,32.1,29.82,SE,135,13.9,15.7,63,0.00,,,0.07,WUHU216HW,2013-02-18 20:18:00,
2013-02-18 15:23:00,44.3,32.5,29.82,SE,135,14.3,15.9,63,0.00,,,0.07,WUHU216HW,2013-02-18 20:23:00,
2013-02-18 15:28:00,44.3,32.5,29.82,SE,135,10.5,15.9,63,0.00,,,0.07,WUHU216HW,2013-02-18 20:28:00,
2013-02-18 15:33:00,44.5,32.7,29.82,SE,135,11.4,14.1,63,0.00,,,0.07,WUHU216HW,2013-02-18 20:33:00,
2013-02-18 15:38:00,44.6,32.9,29.82,SE,135,11.2,13.6,63,0.00,,,0.07,WUHU216HW,2013-02-18 20:38:00,
2013-02-18 15:43:00,44.6,32.9,29.82,SE,135,9.8,12.8,63,0.00,,,0.07,WUHU216HW,2013-02-18 20:43:00,
2013-02-18 15:48:00,44.8,32.9,29.82,SSE,158,9.2,12.3,63,0.00,,,0.07,WUHU216HW,2013-02-18 20:48:00,
2013-02-18 15:53:00,44.8,32.9,29.82,SE,135,11.2,13.2,63,0.00,,,0.07,WUHU216HW,2013-02-18 20:53:00,
2013-02-18 15:58:00,44.6,33.2,29.82,SE,135,10.5,13.2,64,0.00,,,0.07,WUHU216HW,2013-02-18 20:58:00,
2013-02-18 16:03:00,44.5,33.0,29.81,SSE,158,10.3,12.3,64,0.00,,,0.07,WUHU216HW,2013-02-18 21:03:00,
2013-02-18 16:08:00,44.5,33.0,29.81,SSE,158,10.3,12.3,64,0.00,,,0.07,WUHU216HW,2013-02-18 21:08:00,
2013-02-18 16:38:00,45.0,35.1,29.81,SE,135,9.8,10.5,68,0.00,,,0.07,WUHU216HW,2013-02-18 21:38:00,
2013-02-18 16:43:00,45.0,35.1,29.80,SSE,158,9.2,10.5,68,0.00,,,0.07,WUHU216HW,2013-02-18 21:43:00,
2013-02-18 16:48:00,44.8,35.3,29.80,South,180,7.8,9.2,69,0.00,,,0.07,WUHU216HW,2013-02-18 21:48:00,
2013-02-18 16:53:00,44.6,35.1,29.80,SE,135,6.5,9.2,69,0.00,,,0.07,WUHU216HW,2013-02-18 21:53:00,
2013-02-18 16:58:00,44.6,35.1,29.80,SE,135,6.5,6.5,69,0.00,,,0.07,WUHU216HW,2013-02-18 21:58:00,
2013-02-18 17:05:00,44.1,34.6,29.80,SE,135,6.3,8.3,69,0.00,,,0.07,WUHU216HW,2013-02-18 22:05:00,
2013-02-18 17:10:00,43.9,34.8,29.79,SE,135,7.6,8.3,70,0.00,,,0.07,WUHU216HW,2013-02-18 22:10:00,
2013-02-18 17:15:00,43.9,34.8,29.79,SE,135,8.7,8.7,70,0.00,,,0.07,WUHU216HW,2013-02-18 22:15:00,
2013-02-18 17:20:00,43.9,34.8,29.79,SE,135,9.2,9.8,70,0.00,,,0.07,WUHU216HW,2013-02-18 22:20:00,
2013-02-18 17:25:00,43.6,34.8,29.79,SE,135,8.7,9.8,71,0.00,,,0.07,WUHU216HW,2013-02-18 22:25:00,
2013-02-18 17:30:00,43.6,34.8,29.78,SE,135,8.5,9.2,71,0.00,,,0.07,WUHU216HW,2013-02-18 22:30:00,
2013-02-18 17:35:00,43.6,34.8,29.78,SE,135,8.5,9.2,71,0.00,,,0.07,WUHU216HW,2013-02-18 22:35:00,
2013-02-18 18:03:00,42.1,36.0,29.78,SE,135,9.8,9.8,79,0.00,,,0.07,WUHU216HW,2013-02-18 23:03:00,
2013-02-18 18:08:00,41.9,36.5,29.78,SE,135,9.6,10.5,81,0.00,,,0.07,WUHU216HW,2013-02-18 23:08:00,
2013-02-18 18:13:00,42.1,36.6,29.77,SE,135,6.3,13.2,81,0.00,,,0.07,WUHU216HW,2013-02-18 23:13:00,
2013-02-18 18:18:00,42.1,37.3,29.77,ESE,113,7.8,13.2,83,0.00,,,0.07,WUHU216HW,2013-02-18 23:18:00,
2013-02-18 18:23:00,42.1,37.9,29.77,SE,135,8.5,11.6,85,0.00,,,0.07,WUHU216HW,2013-02-18 23:23:00,
2013-02-18 18:28:00,42.1,37.9,29.77,SE,135,6.3,11.6,85,0.01,,,0.07,WUHU216HW,2013-02-18 23:28:00,
2013-02-18 18:33:00,41.9,37.7,29.77,SE,135,7.6,9.4,85,0.01,,,0.07,WUHU216HW,2013-02-18 23:33:00,
2013-02-18 18:38:00,42.1,38.2,29.76,SE,135,8.5,10.1,86,0.01,,,0.07,WUHU216HW,2013-02-18 23:38:00,
2013-02-18 18:43:00,42.5,38.5,29.76,SE,135,9.8,12.1,86,0.01,,,0.07,WUHU216HW,2013-02-18 23:43:00,
2013-02-18 18:48:00,42.8,39.3,29.76,ESE,113,7.6,12.1,87,0.02,,,0.09,WUHU216HW,2013-02-18 23:48:00,
2013-02-18 18:53:00,42.8,39.3,29.75,SE,135,8.3,12.1,87,0.02,,,0.09,WUHU216HW,2013-02-18 23:53:00,
2013-02-18 18:58:00,42.8,39.3,29.75,SE,135,13.4,13.4,87,0.02,,,0.09,WUHU216HW,2013-02-18 23:58:00,
2013-02-18 19:03:00,43.0,39.4,29.75,SE,135,13.0,13.4,87,0.02,,,0.09,WUHU216HW,2013-02-19 00:03:00,
2013-02-18 19:08:00,43.0,39.4,29.75,SSE,158,11.0,15.0,87,0.02,,,0.09,WUHU216HW,2013-02-19 00:08:00,
2013-02-18 19:14:00,43.0,40.1,29.75,SSE,158,13.4,15.4,89,0.02,,,0.09,WUHU216HW,2013-02-19 00:14:00,
2013-02-18 19:19:00,42.8,39.5,29.75,SSE,158,11.0,15.4,88,0.02,,,0.09,WUHU216HW,2013-02-19 00:19:00,
2013-02-18 19:24:00,42.7,39.7,29.74,SE,135,11.4,11.4,89,0.01,,,0.09,WUHU216HW,2013-02-19 00:24:00,
2013-02-18 19:29:00,42.3,39.3,29.75,SE,135,11.4,11.4,89,0.02,,,0.09,WUHU216HW,2013-02-19 00:29:00,
2013-02-18 19:34:00,42.1,39.4,29.75,SE,135,12.8,15.0,90,0.02,,,0.09,WUHU216HW,2013-02-19 00:34:00,
2013-02-18 19:39:00,42.1,40.0,29.75,SE,135,12.1,15.0,92,0.02,,,0.09,WUHU216HW,2013-02-19 00:39:00,
2013-02-18 19:44:00,42.1,40.0,29.75,SE,135,12.1,14.3,92,0.02,,,0.09,WUHU216HW,2013-02-19 00:44:00,
2013-02-18 19:49:00,41.9,39.8,29.74,SE,135,12.8,15.0,92,0.01,,,0.09,WUHU216HW,2013-02-19 00:49:00,
2013-02-18 19:54:00,41.9,39.8,29.74,SE,135,11.4,15.0,92,0.01,,,0.09,WUHU216HW,2013-02-19 00:54:00,
2013-02-18 19:59:00,41.9,40.1,29.74,SE,135,10.5,15.0,93,0.01,,,0.09,WUHU216HW,2013-02-19 00:59:00,
2013-02-18 20:04:00,41.8,39.9,29.73,SE,135,14.3,14.3,93,0.02,,,0.11,WUHU216HW,2013-02-19 01:04:00,
2013-02-18 20:09:00,41.4,39.5,29.73,SE,135,13.2,14.3,93,0.03,,,0.12,WUHU216HW,2013-02-19 01:09:00,
2013-02-18 20:14:00,41.6,39.7,29.73,SE,135,12.5,14.8,93,0.03,,,0.12,WUHU216HW,2013-02-19 01:14:00,
2013-02-18 20:19:00,41.4,39.5,29.72,SE,135,14.8,14.8,93,0.03,,,0.12,WUHU216HW,2013-02-19 01:19:00,
2013-02-18 20:24:00,41.4,39.5,29.72,SE,135,11.4,14.8,93,0.02,,,0.12,WUHU216HW,2013-02-19 01:24:00,
2013-02-18 20:29:00,41.4,39.5,29.72,SE,135,15.0,15.7,93,0.02,,,0.12,WUHU216HW,2013-02-19 01:29:00,
2013-02-18 20:34:00,41.2,39.3,29.71,SE,135,11.4,15.7,93,0.02,,,0.12,WUHU216HW,2013-02-19 01:34:00,
2013-02-18 20:39:00,41.4,39.5,29.71,SE,135,12.8,13.4,93,0.02,,,0.12,WUHU216HW,2013-02-19 01:39:00,
2013-02-18 20:44:00,41.4,39.5,29.70,SE,135,13.2,14.8,93,0.02,,,0.12,WUHU216HW,2013-02-19 01:44:00,
2013-02-18 20:49:00,41.4,39.5,29.70,SSE,158,11.6,14.8,93,0.02,,,0.12,WUHU216HW,2013-02-19 01:49:00,
2013-02-18 20:54:00,41.4,39.5,29.70,SE,135,11.4,14.5,93,0.02,,,0.12,WUHU216HW,2013-02-19 01:54:00,
2013-02-18 20:59:00,41.4,39.5,29.69,SE,135,12.1,14.5,93,0.02,,,0.12,WUHU216HW,2013-02-19 01:59:00,
2013-02-18 21:04:00,41.4,39.5,29.69,SSE,158,8.9,13.0,93,0.00,,,0.12,WUHU216HW,2013-02-19 02:04:00,
2013-02-18 21:09:00,41.4,39.2,29.69,SSE,158,9.8,13.0,92,0.00,,,0.12,WUHU216HW,2013-02-19 02:09:00,
2013-02-18 21:14:00,41.4,39.0,29.69,SE,135,12.8,12.8,91,0.00,,,0.12,WUHU216HW,2013-02-19 02:14:00,
2013-02-18 21:19:00,41.4,39.0,29.69,SE,135,9.8,12.8,91,0.00,,,0.12,WUHU216HW,2013-02-19 02:19:00,
2013-02-18 21:24:00,41.4,39.2,29.69,SE,135,8.5,14.3,92,0.00,,,0.12,WUHU216HW,2013-02-19 02:24:00,
2013-02-18 21:29:00,41.4,39.0,29.69,SE,135,11.4,14.3,91,0.01,,,0.13,WUHU216HW,2013-02-19 02:29:00,
2013-02-18 21:35:00,41.4,39.0,29.68,SE,135,16.6,16.6,91,0.01,,,0.13,WUHU216HW,2013-02-19 02:35:00,
2013-02-18 21:40:00,41.6,39.2,29.68,SSE,158,10.5,16.6,91,0.01,,,0.13,WUHU216HW,2013-02-19 02:40:00,
2013-02-18 21:45:00,41.8,39.1,29.68,SSE,158,15.0,15.0,90,0.01,,,0.13,WUHU216HW,2013-02-19 02:45:00,
2013-02-18 21:50:00,42.1,39.4,29.67,SSE,158,15.0,17.0,90,0.02,,,0.14,WUHU216HW,2013-02-19 02:50:00,
2013-02-18 21:55:00,42.1,39.4,29.67,SSE,158,15.2,17.2,90,0.02,,,0.14,WUHU216HW,2013-02-19 02:55:00,
2013-02-18 22:00:00,41.9,39.2,29.67,SE,135,9.2,17.2,90,0.02,,,0.14,WUHU216HW,2013-02-19 03:00:00,
2013-02-18 22:05:00,41.8,39.1,29.67,SE,135,8.7,16.8,90,0.02,,,0.14,WUHU216HW,2013-02-19 03:05:00,
2013-02-18 22:10:00,41.8,39.1,29.66,SE,135,13.4,15.9,90,0.02,,,0.14,WUHU216HW,2013-02-19 03:10:00,
2013-02-18 22:15:00,41.8,39.1,29.66,SSE,158,15.7,16.3,90,0.03,,,0.14,WUHU216HW,2013-02-19 03:15:00,
2013-02-18 22:20:00,41.8,39.1,29.65,SSE,158,9.2,16.3,90,0.03,,,0.15,WUHU216HW,2013-02-19 03:20:00,
2013-02-18 22:25:00,41.6,38.9,29.65,SSE,158,18.8,18.8,90,0.02,,,0.15,WUHU216HW,2013-02-19 03:25:00,
2013-02-18 22:30:00,41.6,38.9,29.65,SE,135,13.4,18.8,90,0.03,,,0.16,WUHU216HW,2013-02-19 03:30:00,
2013-02-18 22:35:00,41.6,38.9,29.65,SE,135,11.9,18.1,90,0.04,,,0.17,WUHU216HW,2013-02-19 03:35:00,
2013-02-18 22:40:00,41.6,38.9,29.65,SSE,158,16.3,20.1,90,0.05,,,0.18,WUHU216HW,2013-02-19 03:40:00,
2013-02-18 22:46:00,41.6,38.9,29.64,South,180,10.5,20.1,90,0.06,,,0.19,WUHU216HW,2013-02-19 03:46:00,
2013-02-18 22:51:00,41.6,39.2,29.63,SSE,158,18.1,20.1,91,0.08,,,0.21,WUHU216HW,2013-02-19 03:51:00,
2013-02-18 22:56:00,41.4,39.0,29.62,SE,135,16.3,20.1,91,0.09,,,0.22,WUHU216HW,2013-02-19 03:56:00,
2013-02-18 23:01:00,41.4,39.0,29.61,SE,135,13.6,16.3,91,0.09,,,0.23,WUHU216HW,2013-02-19 04:01:00,
2013-02-18 23:06:00,41.4,39.0,29.61,SSW,203,17.2,17.2,91,0.10,,,0.24,WUHU216HW,2013-02-19 04:06:00,
2013-02-18 23:11:00,41.4,39.0,29.60,SE,135,14.3,17.4,91,0.10,,,0.24,WUHU216HW,2013-02-19 04:11:00,
2013-02-18 23:16:00,41.6,39.2,29.59,SE,135,18.8,19.7,91,0.09,,,0.24,WUHU216HW,2013-02-19 04:16:00,
2013-02-18 23:21:00,41.4,39.0,29.59,SE,135,20.4,20.4,91,0.10,,,0.25,WUHU216HW,2013-02-19 04:21:00,
2013-02-18 23:26:00,41.4,39.0,29.59,SE,135,15.0,20.4,91,0.10,,,0.25,WUHU216HW,2013-02-19 04:26:00,
2013-02-18 23:31:00,41.4,39.0,29.58,SE,135,11.4,15.9,91,0.09,,,0.25,WUHU216HW,2013-02-19 04:31:00,
2013-02-18 23:36:00,41.4,39.0,29.58,SE,135,11.4,19.5,91,0.07,,,0.25,WUHU216HW,2013-02-19 04:36:00,
2013-02-18 23:41:00,41.2,38.8,29.58,SSE,158,13.6,19.5,91,0.07,,,0.25,WUHU216HW,2013-02-19 04:41:00,
2013-02-18 23:46:00,41.4,39.0,29.57,SE,135,12.8,16.1,91,0.05,,,0.26,WUHU216HW,2013-02-19 04:46:00,
2013-02-18 23:51:00,41.4,39.2,29.57,SSE,158,21.5,21.5,92,0.04,,,0.26,WUHU216HW,2013-02-19 04:51:00,
2013-02-18 23:56:00,41.6,39.2,29.57,SE,135,19.7,21.5,91,0.03,,,0.26,WUHU216HW,2013-02-19 04:56:00,